Airport Name : Sion

Other Name : Sion

ICAO : LSGS

IATA : SIR

FAA :

Latitude : 46.219592

Longitude : 7.326764

Country : Switzerland

Local Date and Time : 08 Mar 2021 09:50

 

TAF (Terminal Aerodrome Forecast)

TAF LSGS 080825Z 0809/0818 VRB03KT 9999 BKN060 BECMG 0813/0815 26010KT

 

METAR (METeorological Aerodrome Report)

LSGS 080820Z VRB01KT 9000 FEW010 SCT025 BKN050 07/05 Q1017

LSGS 080750Z 00000KT 9000 FEW010 SCT025 BKN050 06/04 Q1017

LSGS 080720Z VRB02KT 8000 FEW005 SCT020 BKN060 06/05 Q1017 RERA

LSGS 080650Z 00000KT 7000 -RA FEW005 SCT012 BKN050 05/04 Q1017

LSGS 080620Z AUTO 00000KT 5000 -RA BKN/// 05/04 Q1017

LSGS 080550Z AUTO VRB01KT 7000 -RA BKN/// 05/04 Q1017

LSGS 080520Z AUTO 27001KT 8000 -RA BKN/// 05/04 Q1017

To Charter a Jet Click here.